Terminal Aerodrome Forecast
Issued by NWS Wakefield, VA

Home | Current Version | Previous Version | Text Only | Print | Product List | Glossary On
Versions: 1 2 3 4 5 6 7 8 9 10 11 12 13 14 15 16 17 18 19 20 21
000
FTUS41 KAKQ 192326
TAFRIC
TAF
KRIC 192326Z 2000/2024 17005KT P6SM SKC
     FM201200 36004KT P6SM SKC
     FM201600 03004KT P6SM SCT050
     FM202100 08004KT P6SM SKC=

USA.gov is the U.S. government's official web portal to all federal, state and local government web resources and services.